Morristown, Tennessee
Current Conditions -  °F | °C
As of 8:55 AM on Friday 24 Oct 2014 (Local Time) from KMOR Reporting Station
Clear Clear  
Wind Chill: 41°   Ceiling: Unl
Heat Index: 45°   Visibility: 10mi
Dew Point: 41°   Wind: 6mph
Humidity: 87%   Direction: 60°ENE
Pressure: 30.13"   Gusts: NA
Location:  36.22°N, 83.29°W
Report Text: KMOR 241255Z AUTO 06005KT 10SM CLR 07/05 A3013 RMK
Loading
Personal Weather Stations






























Interactive Weather Map
Tropical Storm Tracking
New forecast layout! Learn more

10-Day Weather Forecast

Advertisements
Track Severe Weather on mobile